createdAt,value
2022-10-11T00:01:43.020Z,44.44
2022-10-11T00:04:09.660Z,44.18
2022-10-11T00:06:38.240Z,44.27
2022-10-11T00:09:05.672Z,44.13
2022-10-11T00:11:32.736Z,43.98
2022-10-11T00:13:59.219Z,44.21
2022-10-11T00:16:25.911Z,44.20
2022-10-11T00:18:52.440Z,44.09
2022-10-11T00:21:20.927Z,43.97
2022-10-11T00:23:48.084Z,44.02
2022-10-11T00:26:15.128Z,43.99
2022-10-11T00:28:42.432Z,43.89
2022-10-11T00:31:11.584Z,43.97
2022-10-11T00:33:38.315Z,44.15
2022-10-11T00:36:05.678Z,43.96
2022-10-11T00:38:32.580Z,43.93
2022-10-11T00:41:00.174Z,44.17
2022-10-11T00:43:29.832Z,43.92
2022-10-11T00:45:56.351Z,44.18
2022-10-11T00:48:27.913Z,44.13
2022-10-11T00:50:59.924Z,43.83
2022-10-11T00:53:29.468Z,44.12
2022-10-11T00:56:04.262Z,43.99
2022-10-11T00:58:33.865Z,44.14
2022-10-11T01:01:00.674Z,43.75
2022-10-11T01:03:29.467Z,43.91
2022-10-11T01:05:55.978Z,44.04
2022-10-11T01:08:23.266Z,43.91
2022-10-11T01:10:49.983Z,43.97
2022-10-11T01:13:28.509Z,43.67
2022-10-11T01:15:59.205Z,43.70
2022-10-11T01:19:00.844Z,43.77
2022-10-11T01:21:27.451Z,43.84
2022-10-11T01:24:14.448Z,43.81
2022-10-11T01:27:07.124Z,43.55
2022-10-11T01:29:55.083Z,43.86
2022-10-11T01:32:29.642Z,43.62
2022-10-11T01:39:06.867Z,43.72
2022-10-11T01:41:42.721Z,43.79
2022-10-11T01:44:12.380Z,43.61
2022-10-11T01:46:39.080Z,43.60
2022-10-11T01:49:06.000Z,43.83
2022-10-11T01:51:36.332Z,43.82
2022-10-11T01:55:07.613Z,43.89
2022-10-11T01:57:48.635Z,43.61
2022-10-11T02:00:21.641Z,43.59
2022-10-11T02:03:10.105Z,43.70
2022-10-11T02:05:57.429Z,43.80
2022-10-11T02:08:50.120Z,43.67
2022-10-11T02:11:24.619Z,43.91
2022-10-11T02:14:00.427Z,43.48
2022-10-11T02:16:31.495Z,43.69
2022-10-11T02:19:02.924Z,43.53
2022-10-11T02:21:33.241Z,43.63
2022-10-11T02:24:25.259Z,43.58
2022-10-11T02:26:55.511Z,43.67
2022-10-11T02:29:24.581Z,43.41
2022-10-11T02:31:52.476Z,43.44
2022-10-11T02:34:27.520Z,43.63
2022-10-11T02:37:01.408Z,43.48
2022-10-11T02:39:39.406Z,43.73
2022-10-11T02:42:13.391Z,43.53
2022-10-11T02:45:01.100Z,43.29
2022-10-11T02:47:31.135Z,43.60
2022-10-11T02:50:00.050Z,43.38
2022-10-11T02:52:27.097Z,43.42
2022-10-11T02:54:53.704Z,43.52
2022-10-11T02:57:20.408Z,43.62
2022-10-11T02:59:46.892Z,43.30
2022-10-11T03:02:13.519Z,43.52
2022-10-11T03:04:40.012Z,43.60
2022-10-11T03:07:06.592Z,43.55
2022-10-11T03:09:33.124Z,43.53
2022-10-11T03:11:59.691Z,43.25
2022-10-11T03:14:26.347Z,43.51
2022-10-11T03:16:53.208Z,43.24
2022-10-11T03:19:19.756Z,43.36
2022-10-11T03:21:46.901Z,43.14
2022-10-11T03:24:13.479Z,43.60
2022-10-11T03:26:40.051Z,43.54
2022-10-11T03:29:06.546Z,43.33
2022-10-11T03:31:33.114Z,43.28
2022-10-11T03:33:59.636Z,43.49
2022-10-11T03:36:26.453Z,43.38
2022-10-11T03:38:53.000Z,43.19
2022-10-11T03:41:19.750Z,43.44
2022-10-11T03:43:46.315Z,43.17
2022-10-11T03:46:13.028Z,43.36
2022-10-11T03:48:39.785Z,43.28
2022-10-11T03:51:06.538Z,43.26
2022-10-11T03:53:33.156Z,43.08
2022-10-11T03:56:01.534Z,43.35
2022-10-11T03:58:31.401Z,43.22
2022-10-11T04:00:57.933Z,43.40
2022-10-11T04:03:24.520Z,43.42
2022-10-11T04:05:51.302Z,43.27
2022-10-11T04:08:18.301Z,43.37
2022-10-11T04:10:44.879Z,43.40
2022-10-11T04:13:12.144Z,43.17
2022-10-11T04:15:39.363Z,43.12
2022-10-11T04:18:06.470Z,43.08
2022-10-11T04:20:33.016Z,43.25
2022-10-11T04:22:59.724Z,43.10
2022-10-11T04:25:26.276Z,43.03
2022-10-11T04:27:52.904Z,43.10
2022-10-11T04:30:19.977Z,43.07
2022-10-11T04:32:46.529Z,43.12
2022-10-11T04:35:13.384Z,43.29
2022-10-11T04:37:40.056Z,43.10
2022-10-11T04:40:08.336Z,43.18
2022-10-11T04:42:35.166Z,43.09
2022-10-11T04:45:01.717Z,43.35
2022-10-11T04:47:28.285Z,43.10
2022-10-11T04:49:54.774Z,43.44
2022-10-11T04:52:25.539Z,43.00
2022-10-11T04:54:52.578Z,43.34
2022-10-11T04:57:19.068Z,43.36
2022-10-11T04:59:49.995Z,43.02
2022-10-11T05:02:17.201Z,43.32
2022-10-11T05:04:43.825Z,43.39
2022-10-11T05:07:10.468Z,43.12
2022-10-11T05:09:37.025Z,43.06
2022-10-11T05:12:04.083Z,43.17
2022-10-11T05:14:30.695Z,43.39
2022-10-11T05:16:57.601Z,43.48
2022-10-11T05:19:24.076Z,43.25
2022-10-11T05:21:50.685Z,43.13
2022-10-11T05:24:17.184Z,43.13
2022-10-11T05:26:43.732Z,43.43
2022-10-11T05:29:10.245Z,43.44
2022-10-11T05:31:36.827Z,43.36
2022-10-11T05:34:03.425Z,43.17
2022-10-11T05:36:30.115Z,43.06
2022-10-11T05:38:56.613Z,43.13
2022-10-11T05:41:23.274Z,43.22
2022-10-11T05:43:49.952Z,42.98
2022-10-11T05:46:16.760Z,42.99
2022-10-11T05:48:43.268Z,43.02
2022-10-11T05:51:12.090Z,43.00
2022-10-11T05:53:39.323Z,43.12
2022-10-11T05:56:18.475Z,42.98
2022-10-11T05:58:45.015Z,43.02
2022-10-11T06:01:23.831Z,43.13
2022-10-11T06:03:51.231Z,43.38
2022-10-11T06:06:18.276Z,43.70
2022-10-11T06:08:45.653Z,43.88
2022-10-11T06:11:18.214Z,43.94
2022-10-11T06:13:44.816Z,44.03
2022-10-11T06:16:12.228Z,44.11
2022-10-11T06:18:39.160Z,43.79
2022-10-11T06:21:05.817Z,43.83
2022-10-11T06:23:32.463Z,44.00
2022-10-11T06:26:06.854Z,43.99
2022-10-11T06:28:35.687Z,44.05
2022-10-11T06:31:05.172Z,43.79
2022-10-11T06:33:32.157Z,43.77
2022-10-11T06:36:00.361Z,43.57
2022-10-11T06:38:27.068Z,43.71
2022-10-11T06:40:53.860Z,43.62
2022-10-11T06:43:21.000Z,43.73
2022-10-11T06:45:47.628Z,43.87
2022-10-11T06:48:14.870Z,43.97
2022-10-11T06:50:59.075Z,43.81
2022-10-11T06:53:27.959Z,43.57
2022-10-11T06:56:01.016Z,42.34
2022-10-11T06:58:28.469Z,43.07
2022-10-11T07:00:55.075Z,42.99
2022-10-11T07:03:21.704Z,43.47
2022-10-11T07:05:48.216Z,43.50
2022-10-11T07:08:14.988Z,43.84
2022-10-11T07:10:41.492Z,44.05
2022-10-11T07:13:11.551Z,44.16
2022-10-11T07:15:41.437Z,44.32
2022-10-11T07:18:08.045Z,44.20
2022-10-11T07:23:12.992Z,43.85
2022-10-11T07:25:39.739Z,44.12
2022-10-11T07:28:06.291Z,44.34
2022-10-11T07:30:33.954Z,44.29
2022-10-11T07:33:00.443Z,44.58
2022-10-11T07:35:27.066Z,44.47
2022-10-11T07:37:53.620Z,44.71
2022-10-11T07:40:20.181Z,44.83
2022-10-11T07:42:46.922Z,44.74
2022-10-11T07:45:16.801Z,44.83
2022-10-11T07:47:46.357Z,44.76
2022-10-11T07:50:13.900Z,45.21
2022-10-11T07:52:40.597Z,44.84
2022-10-11T07:55:07.758Z,44.83
2022-10-11T07:57:34.272Z,44.98
2022-10-11T08:00:00.928Z,44.88
2022-10-11T08:04:56.563Z,44.66
2022-10-11T08:07:23.301Z,44.45
2022-10-11T08:09:49.885Z,44.34
2022-10-11T08:12:16.649Z,44.55
2022-10-11T08:14:43.245Z,44.33
2022-10-11T08:17:10.104Z,44.73
2022-10-11T08:19:36.647Z,44.88
2022-10-11T08:22:04.381Z,44.59
2022-10-11T08:24:33.534Z,44.56
2022-10-11T08:27:03.936Z,44.80
2022-10-11T08:29:30.477Z,44.59
2022-10-11T08:31:57.089Z,44.87
2022-10-11T08:34:23.932Z,44.70
2022-10-11T08:36:50.710Z,44.34
2022-10-11T08:39:17.233Z,44.56
2022-10-11T08:41:52.647Z,44.19
2022-10-11T08:44:46.130Z,44.10
2022-10-11T08:47:28.555Z,44.27
2022-10-11T08:49:56.005Z,43.88
2022-10-11T08:52:27.344Z,44.31
2022-10-11T08:54:58.223Z,43.94
2022-10-11T08:57:27.679Z,43.83
2022-10-11T08:59:58.857Z,44.17
2022-10-11T09:02:55.741Z,43.77
2022-10-11T09:05:25.056Z,43.59
2022-10-11T09:08:07.405Z,44.02
2022-10-11T09:10:55.913Z,43.98
2022-10-11T09:14:11.748Z,43.62
2022-10-11T09:16:59.529Z,43.53
2022-10-11T09:19:50.970Z,43.53
2022-10-11T09:22:20.560Z,43.81
2022-10-11T09:24:54.049Z,43.75
2022-10-11T09:28:02.899Z,43.38
2022-10-11T09:30:31.052Z,43.50
2022-10-11T09:35:22.674Z,43.67
2022-10-11T09:38:04.401Z,43.55
2022-10-11T09:40:33.936Z,43.31
2022-10-11T09:43:00.447Z,43.34
2022-10-11T09:45:27.105Z,43.19
2022-10-11T09:47:56.020Z,43.19
2022-10-11T09:50:26.091Z,43.41
2022-10-11T09:53:01.805Z,43.28
2022-10-11T09:55:33.265Z,43.30
2022-10-11T09:58:00.522Z,43.39
2022-10-11T10:00:30.074Z,43.33
2022-10-11T10:03:04.557Z,42.97
2022-10-11T10:05:33.821Z,43.22
2022-10-11T10:08:26.920Z,42.90
2022-10-11T10:10:59.429Z,42.99
2022-10-11T10:13:52.827Z,43.15
2022-10-11T10:16:33.690Z,43.21
2022-10-11T10:19:03.673Z,43.13
2022-10-11T10:21:37.308Z,42.85
2022-10-11T10:24:20.557Z,42.82
2022-10-11T10:27:10.188Z,42.78
2022-10-11T10:29:37.507Z,42.85
2022-10-11T10:32:21.265Z,42.87
2022-10-11T10:35:06.687Z,42.95
2022-10-11T10:37:40.685Z,42.78
2022-10-11T10:40:17.164Z,43.04
2022-10-11T10:42:43.805Z,42.89
2022-10-11T10:45:21.415Z,42.75
2022-10-11T10:48:18.233Z,42.75
2022-10-11T10:51:10.340Z,42.38
2022-10-11T10:53:44.411Z,42.66
2022-10-11T10:56:17.422Z,42.67
2022-10-11T10:59:13.288Z,42.66
2022-10-11T11:02:11.123Z,42.30
2022-10-11T11:05:17.451Z,42.29
2022-10-11T11:07:50.031Z,42.55
2022-10-11T11:10:23.238Z,42.43
2022-10-11T11:13:22.476Z,42.49
2022-10-11T11:16:15.121Z,42.51
2022-10-11T11:19:13.401Z,42.54
2022-10-11T11:21:52.261Z,42.25
2022-10-11T11:24:40.472Z,42.27
2022-10-11T11:27:27.423Z,42.31
2022-10-11T11:30:06.280Z,42.25
2022-10-11T11:32:48.140Z,42.28
2022-10-11T11:35:37.988Z,42.40
2022-10-11T11:38:16.557Z,42.22
2022-10-11T11:40:52.469Z,42.28
2022-10-11T11:43:32.664Z,41.96
2022-10-11T11:46:14.035Z,41.92
2022-10-11T11:48:43.197Z,42.06
2022-10-11T11:51:17.681Z,42.06
2022-10-11T11:54:12.328Z,42.23
2022-10-11T11:56:47.830Z,41.79
2022-10-11T11:59:27.828Z,41.74
2022-10-11T12:02:42.429Z,42.03
2022-10-11T12:05:11.967Z,41.93
2022-10-11T12:08:28.121Z,41.84
2022-10-11T12:10:59.557Z,41.84
2022-10-11T12:13:46.477Z,41.80
2022-10-11T12:16:15.632Z,41.91
2022-10-11T12:18:51.063Z,41.78
2022-10-11T12:21:32.908Z,41.88
2022-10-11T12:24:09.537Z,41.75
2022-10-11T12:26:47.133Z,41.80
2022-10-11T12:29:43.577Z,41.91
2022-10-11T12:32:11.399Z,41.94
2022-10-11T12:37:19.017Z,42.02
2022-10-11T12:39:52.767Z,42.00
2022-10-11T12:42:26.273Z,41.89
2022-10-11T12:45:10.942Z,41.88
2022-10-11T12:47:37.443Z,41.88
2022-10-11T12:50:17.856Z,41.82
2022-10-11T12:53:12.344Z,41.79
2022-10-11T12:55:46.732Z,41.84
2022-10-11T12:58:43.874Z,41.93
2022-10-11T13:01:17.485Z,41.88
2022-10-11T13:04:00.093Z,41.87
2022-10-11T13:06:44.405Z,41.71
2022-10-11T13:09:10.917Z,41.88
2022-10-11T13:11:45.535Z,42.00
2022-10-11T13:14:19.114Z,42.09
2022-10-11T13:16:58.477Z,41.78
2022-10-11T13:19:26.049Z,41.86
2022-10-11T13:21:59.337Z,42.14
2022-10-11T13:24:27.667Z,42.03
2022-10-11T13:26:56.460Z,41.85
2022-10-11T13:29:28.733Z,41.64
2022-10-11T13:31:55.873Z,41.59
2022-10-11T13:34:23.646Z,41.90
2022-10-11T13:36:58.663Z,41.78
2022-10-11T13:39:31.532Z,41.75
2022-10-11T13:41:59.670Z,41.80
2022-10-11T13:44:26.992Z,41.78
2022-10-11T13:46:56.613Z,41.72
2022-10-11T13:49:27.044Z,41.53
2022-10-11T13:52:02.295Z,41.85
2022-10-11T13:55:04.174Z,41.46
2022-10-11T13:57:38.958Z,41.67
2022-10-11T14:00:24.088Z,41.67
2022-10-11T14:03:02.181Z,41.70
2022-10-11T14:05:41.202Z,41.80
2022-10-11T14:08:55.199Z,41.61
2022-10-11T14:11:39.650Z,41.52
2022-10-11T14:14:28.825Z,41.62
2022-10-11T14:17:05.713Z,41.44
2022-10-11T14:19:34.469Z,41.63
2022-10-11T14:22:00.956Z,41.85
2022-10-11T14:24:27.576Z,41.34
2022-10-11T14:26:55.799Z,41.74
2022-10-11T14:29:25.667Z,41.36
2022-10-11T14:32:05.510Z,41.63
2022-10-11T14:34:34.900Z,41.53
2022-10-11T14:37:01.447Z,41.46
2022-10-11T14:39:30.933Z,41.59
2022-10-11T14:41:57.873Z,41.47
2022-10-11T14:44:24.784Z,41.73
2022-10-11T14:46:54.725Z,41.72
2022-10-11T14:49:28.701Z,41.46
2022-10-11T14:51:57.545Z,41.67
2022-10-11T14:54:25.588Z,41.48
2022-10-11T14:56:54.815Z,41.57
2022-10-11T14:59:24.645Z,41.48
2022-10-11T15:01:53.827Z,41.31
2022-10-11T15:04:21.512Z,41.64
2022-10-11T15:06:48.872Z,41.34
2022-10-11T15:09:17.122Z,41.51
2022-10-11T15:11:43.792Z,41.61
2022-10-11T15:14:10.368Z,41.54
2022-10-11T15:16:36.944Z,41.57
2022-10-11T15:19:03.933Z,41.63
2022-10-11T15:21:30.657Z,41.40
2022-10-11T15:23:57.539Z,41.86
2022-10-11T15:26:29.012Z,41.51
2022-10-11T15:28:57.182Z,41.69
2022-10-11T15:31:24.152Z,41.78
2022-10-11T15:33:51.083Z,41.77
2022-10-11T15:36:20.821Z,41.93
2022-10-11T15:38:48.333Z,41.93
2022-10-11T15:41:16.582Z,41.82
2022-10-11T15:43:44.861Z,41.97
2022-10-11T15:46:17.696Z,42.04
2022-10-11T15:48:45.669Z,42.11
2022-10-11T15:51:12.553Z,41.95
2022-10-11T15:53:40.516Z,41.81
2022-10-11T15:56:12.168Z,42.24
2022-10-11T15:58:41.518Z,42.13
2022-10-11T16:01:19.600Z,41.86
2022-10-11T16:03:48.427Z,41.95
2022-10-11T16:06:16.202Z,42.05
2022-10-11T16:08:43.355Z,42.21
2022-10-11T16:11:10.757Z,42.36
2022-10-11T16:13:37.841Z,42.10
2022-10-11T16:16:06.912Z,42.39
2022-10-11T16:18:35.613Z,42.20
2022-10-11T16:21:08.424Z,42.39
2022-10-11T16:23:35.953Z,42.09
2022-10-11T16:26:06.015Z,42.20
2022-10-11T16:28:33.380Z,42.56
2022-10-11T16:31:00.197Z,42.43
2022-10-11T16:33:26.979Z,42.79
2022-10-11T16:35:56.157Z,42.70
2022-10-11T16:38:22.716Z,42.47
2022-10-11T16:40:49.212Z,42.66
2022-10-11T16:43:15.802Z,42.86
2022-10-11T16:45:42.300Z,42.61
2022-10-11T16:48:08.833Z,42.85
2022-10-11T16:50:39.302Z,42.65
2022-10-11T16:53:06.515Z,42.68
2022-10-11T16:55:33.106Z,42.58
2022-10-11T16:57:59.717Z,42.95
2022-10-11T17:00:26.306Z,42.79
2022-10-11T17:02:55.032Z,42.62
2022-10-11T17:05:21.619Z,42.60
2022-10-11T17:07:48.155Z,42.74
2022-10-11T17:10:14.699Z,42.67
2022-10-11T17:12:41.308Z,42.80
2022-10-11T17:15:10.822Z,42.73
2022-10-11T17:17:37.481Z,42.72
2022-10-11T17:20:04.467Z,42.71
2022-10-11T17:22:31.042Z,42.75
2022-10-11T17:24:57.535Z,42.84
2022-10-11T17:27:24.166Z,42.62
2022-10-11T17:29:50.669Z,43.00
2022-10-11T17:32:17.224Z,42.76
2022-10-11T17:34:43.782Z,42.99
2022-10-11T17:37:12.484Z,42.93
2022-10-11T17:39:38.980Z,42.68
2022-10-11T17:42:07.705Z,42.67
2022-10-11T17:44:35.710Z,42.66
2022-10-11T17:47:02.800Z,42.66
2022-10-11T17:49:29.599Z,43.02
2022-10-11T17:51:56.640Z,43.01
2022-10-11T17:54:23.266Z,43.04
2022-10-11T17:56:50.295Z,42.95
2022-10-11T17:59:18.839Z,42.96
2022-10-11T18:01:45.538Z,42.97
2022-10-11T18:04:16.577Z,43.06
2022-10-11T18:06:45.886Z,43.16
2022-10-11T18:09:15.033Z,42.67
2022-10-11T18:11:41.833Z,42.71
2022-10-11T18:14:09.428Z,43.17
2022-10-11T18:16:37.256Z,42.82
2022-10-11T18:19:07.050Z,43.14
2022-10-11T18:21:35.102Z,43.15
2022-10-11T18:24:03.956Z,42.89
2022-10-11T18:26:31.210Z,43.10
2022-10-11T18:28:58.495Z,43.31
2022-10-11T18:31:28.506Z,43.41
2022-10-11T18:33:55.613Z,43.08
2022-10-11T18:36:27.110Z,42.96
2022-10-11T18:38:56.788Z,43.28
2022-10-11T18:41:30.730Z,43.14
2022-10-11T18:44:06.405Z,43.27
2022-10-11T18:46:33.959Z,43.33
2022-10-11T18:49:03.619Z,43.29
2022-10-11T18:51:38.476Z,43.47
2022-10-11T18:54:06.905Z,43.30
2022-10-11T18:56:35.349Z,43.30
2022-10-11T18:59:05.380Z,43.61
2022-10-11T19:01:38.214Z,43.28
2022-10-11T19:04:07.381Z,43.48
2022-10-11T19:06:37.164Z,43.32
2022-10-11T19:09:13.991Z,43.73
2022-10-11T19:11:41.282Z,43.40
2022-10-11T19:14:11.372Z,43.61
2022-10-11T19:16:45.290Z,43.73
2022-10-11T19:19:12.889Z,43.75
2022-10-11T19:21:39.685Z,43.60
2022-10-11T19:24:06.683Z,43.78
2022-10-11T19:26:38.397Z,44.08
2022-10-11T19:29:08.193Z,44.09
2022-10-11T19:31:39.963Z,43.86
2022-10-11T19:34:06.720Z,43.92
2022-10-11T19:36:36.621Z,44.19
2022-10-11T19:39:05.424Z,43.92
2022-10-11T19:41:32.745Z,43.84
2022-10-11T19:43:59.960Z,44.25
2022-10-11T19:49:17.575Z,45.78
2022-10-11T19:51:44.454Z,46.41
2022-10-11T19:54:15.819Z,46.92
2022-10-11T19:56:43.441Z,47.19
2022-10-11T19:59:11.352Z,47.53
2022-10-11T20:01:41.850Z,47.48
2022-10-11T20:04:27.461Z,47.34
2022-10-11T20:06:57.909Z,47.46
2022-10-11T20:09:29.500Z,47.35
2022-10-11T20:11:56.809Z,47.31
2022-10-11T20:14:23.413Z,47.48
2022-10-11T20:16:50.790Z,47.51
2022-10-11T20:19:17.889Z,47.13
2022-10-11T20:21:45.081Z,47.34
2022-10-11T20:24:11.874Z,46.97
2022-10-11T20:26:39.194Z,47.06
2022-10-11T20:29:05.794Z,47.25
2022-10-11T20:31:40.917Z,46.93
2022-10-11T20:34:07.899Z,46.91
2022-10-11T20:36:35.839Z,46.83
2022-10-11T20:39:03.739Z,46.92
2022-10-11T20:41:33.368Z,46.68
2022-10-11T20:44:01.624Z,46.91
2022-10-11T20:46:31.496Z,46.93
2022-10-11T20:49:13.120Z,46.79
2022-10-11T20:51:41.718Z,46.78
2022-10-11T20:54:08.377Z,46.54
2022-10-11T20:56:36.800Z,46.73
2022-10-11T20:59:03.540Z,46.66
2022-10-11T21:01:33.265Z,46.26
2022-10-11T21:04:01.397Z,46.45
2022-10-11T21:06:31.479Z,46.37
2022-10-11T21:08:59.390Z,46.30
2022-10-11T21:11:27.506Z,46.13
2022-10-11T21:13:58.659Z,46.04
2022-10-11T21:16:26.892Z,45.96
2022-10-11T21:18:55.449Z,46.22
2022-10-11T21:21:23.850Z,46.08
2022-10-11T21:23:57.979Z,46.12
2022-10-11T21:26:25.491Z,45.92
2022-10-11T21:28:52.216Z,45.75
2022-10-11T21:31:22.933Z,45.77
2022-10-11T21:33:52.165Z,46.07
2022-10-11T21:36:20.962Z,46.05
2022-10-11T21:38:48.549Z,46.02
2022-10-11T21:41:26.057Z,46.02
2022-10-11T21:43:52.984Z,45.85
2022-10-11T21:46:41.593Z,45.85
2022-10-11T21:49:12.351Z,45.61
2022-10-11T21:51:38.912Z,45.68
2022-10-11T21:54:05.709Z,45.58
2022-10-11T21:56:32.425Z,45.66
2022-10-11T21:58:59.076Z,45.36
2022-10-11T22:01:25.667Z,45.53
2022-10-11T22:03:55.220Z,45.63
2022-10-11T22:06:22.086Z,45.34
2022-10-11T22:08:49.898Z,45.64
2022-10-11T22:11:17.039Z,45.45
2022-10-11T22:13:43.598Z,45.53
2022-10-11T22:16:12.988Z,45.53
2022-10-11T22:18:41.321Z,45.12
2022-10-11T22:21:14.113Z,45.44
2022-10-11T22:23:42.485Z,45.19
2022-10-11T22:26:14.700Z,45.17
2022-10-11T22:28:41.633Z,45.31
2022-10-11T22:31:09.866Z,45.22
2022-10-11T22:33:36.965Z,45.25
2022-10-11T22:36:05.759Z,45.25
2022-10-11T22:38:32.580Z,44.91
2022-10-11T22:40:59.250Z,45.11
2022-10-11T22:43:25.979Z,44.99
2022-10-11T22:45:52.577Z,45.05
2022-10-11T22:48:19.221Z,44.92
2022-10-11T22:50:45.739Z,44.76
2022-10-11T22:53:16.117Z,45.07
2022-10-11T22:55:42.740Z,45.05
2022-10-11T22:58:09.572Z,44.93
2022-10-11T23:00:37.060Z,44.78
2022-10-11T23:03:03.941Z,44.97
2022-10-11T23:05:30.503Z,44.80
2022-10-11T23:07:57.021Z,44.68
2022-10-11T23:10:23.592Z,44.78
2022-10-11T23:12:50.074Z,44.96
2022-10-11T23:15:17.046Z,44.56
2022-10-11T23:17:43.521Z,44.47
2022-10-11T23:20:10.648Z,44.41
2022-10-11T23:22:37.262Z,44.35
2022-10-11T23:25:04.608Z,44.33
2022-10-11T23:27:31.156Z,44.54
2022-10-11T23:29:57.969Z,44.54
2022-10-11T23:32:24.523Z,44.28
2022-10-11T23:34:51.588Z,44.40
2022-10-11T23:37:18.260Z,44.45
2022-10-11T23:39:45.196Z,44.44
2022-10-11T23:42:11.827Z,44.47
2022-10-11T23:44:38.457Z,43.97
2022-10-11T23:47:04.991Z,44.15
2022-10-11T23:49:31.535Z,44.56
2022-10-11T23:51:58.134Z,44.05
2022-10-11T23:54:24.896Z,44.33
2022-10-11T23:56:51.446Z,43.93
2022-10-11T23:59:18.072Z,44.31
